Rotterdam — PDGS — position and weather

sailwx.info

Track history (hours):
 
Tides and Currents Weather Stations Pressure Air Temp Water Temp Dewpoint Dewpoint Depression Visibility Wind Speed Wind Dir Waves Ship Positions

Rotterdam

Operator: Holland America Line

Last reported at 2018-Nov-10 06:43 UTC. Time now 2018-Nov-14 02:27 UTC.
Position N 17°35' W 062°48'.

Length 228 m; beam 29 m.

Type: Ship. MMSI: 24616700.

Date/timePositionNaut miles runAvg speedWind from/ knotsBaromVisibWave heightAir tempDewpointWater temp
2018-Nov-10 06:43N 17°35' W 062°48'314.1
2018-Nov-10 06:32N 17°36' W 062°50'714.0
2018-Nov-10 06:01N 17°39' W 062°57'713.8
2018-Nov-10 05:32N 17°42' W 063°03'1014.0
2018-Nov-10 04:48N 17°47' W 063°13'1013.9
2018-Nov-10 04:06N 17°51' W 063°22'814.1
2018-Nov-10 03:31N 17°54' W 063°30'814.1
2018-Nov-10 02:58N 17°56' W 063°38'5014.8
2018-Nov-09 23:37N 18°09' W 064°29'914.7
2018-Nov-09 22:59N 18°10' W 064°38'714.8
2018-Nov-09 22:32N 18°11' W 064°45'714.8
2018-Nov-09 22:02N 18°13' W 064°53'6 0.5
2018-Nov-09 10:48N 18°17' W 064°58'  
Track history (hours):
 
Tides and Currents Weather Stations Pressure Air Temp Water Temp Dewpoint Dewpoint Depression Visibility Wind Speed Wind Dir Waves Ship Positions

Rotterdam

Operator: Holland America Line

Last reported at 2018-Nov-10 06:43 UTC. Time now 2018-Nov-14 02:27 UTC.
Position N 17°35' W 062°48'.

Length 228 m; beam 29 m.

Type: Ship. MMSI: 24616700.

Date/timePositionNaut miles runAvg speedWind from/ knotsBaromVisibWave heightAir tempDewpointWater temp
2018-Nov-10 06:43N 17°35' W 062°48'314.1
2018-Nov-10 06:32N 17°36' W 062°50'714.0
2018-Nov-10 06:01N 17°39' W 062°57'713.8
2018-Nov-10 05:32N 17°42' W 063°03'1014.0
2018-Nov-10 04:48N 17°47' W 063°13'1013.9
2018-Nov-10 04:06N 17°51' W 063°22'814.1
2018-Nov-10 03:31N 17°54' W 063°30'814.1
2018-Nov-10 02:58N 17°56' W 063°38'5014.8
2018-Nov-09 23:37N 18°09' W 064°29'914.7
2018-Nov-09 22:59N 18°10' W 064°38'714.8
2018-Nov-09 22:32N 18°11' W 064°45'714.8
2018-Nov-09 22:02N 18°13' W 064°53'6 0.5
2018-Nov-09 10:48N 18°17' W 064°58'  

Dump ship's entire track history